KEKO/EKO METAR and TAF weather

Enter ICAO airport designator
Station Type Date Time Source
KEKO METAR 2019/02/20 22:56 UTC NOAA

KEKO 202256Z AUTO 20007KT 10SM SCT030 M02/M06 A2958 RMK AO2 SNB26E44 SLP045 P0000 T10221061


Station Type Date Time Source
KEKO Decoded METAR 2019/02/20 22:56 UTC NOAA

ELKO REGIONAL AIRPORT, NV, United States (KEKO) 40-50N 115-47W 1547M
Feb 20, 2019 - 05:56 PM EST / 2019.02.20 2256 UTC
Wind: from the SSW (200 degrees) at 8 MPH (7 KT):0
Visibility: 10 mile(s):0
Sky conditions: partly cloudy
Precipitation last hour: A trace
Temperature: 28.0 F (-2.2 C)
Windchill: 19 F (-7 C):1
Dew Point: 21.0 F (-6.1 C)
Relative Humidity: 74%
Pressure (altimeter): 29.58 in. Hg (1001 hPa)
ob: KEKO 202256Z AUTO 20007KT 10SM SCT030 M02/M06 A2958 RMK AO2 SNB26E44 SLP045 P0000 T10221061
cycle: 23

Station Type Date Time Source
KEKO TAF 2019/02/20 18:22 UTC NOAA

TAF KEKO 201720Z 2018/2118 24006KT 3SM -SHSN BR OVC015
FM210200 23006KT P6SM VCSH BKN015
FM210600 23006KT 3SM -SN BR OVC015


Example: see airport list